Main page
METAR-TAF:

METAR-TAF

Airports :

Bauru Airport

Bauru, São Paulo, Brazil

latitude: 22-19S, longitude: 049-04W, elevation: 590 m

Current weather observation

The report was made 1 hour and 48 minutes ago, at 09:00 UTC
Wind 6 kt from the West
Temperature 23°C
Humidity 100%
Pressure 1011 hPa
Visibility: 5000 m
Overcast at a height of 300 ft
mist

METAR: SBBU 060900Z 26006KT 5000 BR OVC003 23/23 Q1011

Time: 07:48 (10:48 UTC)

Forecast

The report was made 6 hours and 48 minutes ago, at 04:00 UTC
Forecast valid from 06 at 06 UTC to 06 at 18 UTC
Wind 5 kt from the West
Visibility 10 km or more
Scattered clouds at a height of 2500 ft
Probability 40%
from 06 at 06 UTC to 06 at 11 UTC
Broken clouds at a height of 500 ft

TAF: SBBU 060400Z 0606/0618 26005KT 9999 SCT025 TN21/0608Z TX26/0617Z PROB40 0606/0611 BKN005 RMK PEL

Weather observations and forecasts of more than 4000 airports (METAR and TAF reports).

The available stations are represented by yellow and red dots on the map.

Hover mouse over dot to see the name of the station.

Then click to see weather observations and forecasts.

To change the map : click on the green buttons with a black cross to zoom in, on the green button with a dash to zoom out, or on the green arrows for adjacent maps.


METAR-TAF: